sensor_id;sensor_type;location;lat;lon;timestamp;P1;durP1;ratioP1;P2;durP2;ratioP2
29788;SDS011;64899;42.660;23.268;2023-02-01T00:01:37;8.02;;;5.18;;
29788;SDS011;64899;42.660;23.268;2023-02-01T00:04:02;7.78;;;4.97;;
29788;SDS011;64899;42.660;23.268;2023-02-01T00:06:27;6.85;;;5.00;;
29788;SDS011;64899;42.660;23.268;2023-02-01T00:08:53;6.00;;;4.78;;
29788;SDS011;64899;42.660;23.268;2023-02-01T00:11:19;6.47;;;5.05;;
29788;SDS011;64899;42.660;23.268;2023-02-01T00:13:44;6.25;;;4.85;;
29788;SDS011;64899;42.660;23.268;2023-02-01T00:16:14;8.20;;;5.20;;
29788;SDS011;64899;42.660;23.268;2023-02-01T00:18:42;9.70;;;5.65;;
29788;SDS011;64899;42.660;23.268;2023-02-01T00:21:07;9.70;;;5.50;;
29788;SDS011;64899;42.660;23.268;2023-02-01T00:23:35;7.25;;;5.50;;
29788;SDS011;64899;42.660;23.268;2023-02-01T00:26:02;9.10;;;5.72;;
29788;SDS011;64899;42.660;23.268;2023-02-01T00:28:29;8.05;;;6.00;;
29788;SDS011;64899;42.660;23.268;2023-02-01T00:30:57;7.35;;;5.03;;
29788;SDS011;64899;42.660;23.268;2023-02-01T00:33:27;9.95;;;5.05;;
29788;SDS011;64899;42.660;23.268;2023-02-01T00:35:56;8.98;;;4.95;;
29788;SDS011;64899;42.660;23.268;2023-02-01T00:38:31;6.95;;;4.50;;
29788;SDS011;64899;42.660;23.268;2023-02-01T00:41:01;9.93;;;4.45;;
29788;SDS011;64899;42.660;23.268;2023-02-01T00:43:48;6.07;;;4.43;;
29788;SDS011;64899;42.660;23.268;2023-02-01T00:46:14;6.85;;;4.47;;
29788;SDS011;64899;42.660;23.268;2023-02-01T00:48:41;7.35;;;4.88;;
29788;SDS011;64899;42.660;23.268;2023-02-01T00:51:07;7.28;;;4.55;;
29788;SDS011;64899;42.660;23.268;2023-02-01T00:53:35;5.95;;;4.32;;
29788;SDS011;64899;42.660;23.268;2023-02-01T00:56:00;5.18;;;3.63;;
29788;SDS011;64899;42.660;23.268;2023-02-01T00:58:26;6.25;;;3.90;;
29788;SDS011;64899;42.660;23.268;2023-02-01T01:01:25;9.68;;;4.30;;
29788;SDS011;64899;42.660;23.268;2023-02-01T01:03:46;7.20;;;4.55;;
29788;SDS011;64899;42.660;23.268;2023-02-01T01:06:16;5.47;;;4.00;;
29788;SDS011;64899;42.660;23.268;2023-02-01T01:08:42;3.92;;;3.47;;
29788;SDS011;64899;42.660;23.268;2023-02-01T01:11:09;5.30;;;3.78;;
29788;SDS011;64899;42.660;23.268;2023-02-01T01:13:39;5.28;;;4.30;;
29788;SDS011;64899;42.660;23.268;2023-02-01T01:16:05;8.02;;;4.65;;
29788;SDS011;64899;42.660;23.268;2023-02-01T01:18:32;10.18;;;4.18;;
29788;SDS011;64899;42.660;23.268;2023-02-01T01:20:58;6.32;;;3.58;;
29788;SDS011;64899;42.660;23.268;2023-02-01T01:23:24;4.88;;;3.55;;
29788;SDS011;64899;42.660;23.268;2023-02-01T01:25:50;5.72;;;3.58;;
29788;SDS011;64899;42.660;23.268;2023-02-01T01:28:15;8.13;;;4.03;;
29788;SDS011;64899;42.660;23.268;2023-02-01T01:30:41;5.65;;;3.90;;
29788;SDS011;64899;42.660;23.268;2023-02-01T01:33:06;4.57;;;3.20;;
29788;SDS011;64899;42.660;23.268;2023-02-01T01:35:32;3.72;;;3.05;;
29788;SDS011;64899;42.660;23.268;2023-02-01T01:37:58;5.05;;;3.90;;
29788;SDS011;64899;42.660;23.268;2023-02-01T01:40:24;5.57;;;3.72;;
29788;SDS011;64899;42.660;23.268;2023-02-01T01:42:50;11.18;;;4.03;;
29788;SDS011;64899;42.660;23.268;2023-02-01T01:45:29;7.30;;;3.15;;
29788;SDS011;64899;42.660;23.268;2023-02-01T01:48:04;6.63;;;3.60;;
29788;SDS011;64899;42.660;23.268;2023-02-01T01:50:35;4.40;;;3.10;;
29788;SDS011;64899;42.660;23.268;2023-02-01T01:53:05;5.03;;;2.67;;
29788;SDS011;64899;42.660;23.268;2023-02-01T01:55:34;6.32;;;3.50;;
29788;SDS011;64899;42.660;23.268;2023-02-01T01:58:04;6.78;;;2.90;;
29788;SDS011;64899;42.660;23.268;2023-02-01T02:00:31;6.30;;;3.75;;
29788;SDS011;64899;42.660;23.268;2023-02-01T02:02:58;8.30;;;3.38;;
29788;SDS011;64899;42.660;23.268;2023-02-01T02:05:28;6.75;;;3.45;;
29788;SDS011;64899;42.660;23.268;2023-02-01T02:07:55;5.95;;;3.60;;
29788;SDS011;64899;42.660;23.268;2023-02-01T02:10:23;5.45;;;3.50;;
29788;SDS011;64899;42.660;23.268;2023-02-01T02:13:09;8.15;;;3.88;;
29788;SDS011;64899;42.660;23.268;2023-02-01T02:15:35;5.05;;;3.10;;
29788;SDS011;64899;42.660;23.268;2023-02-01T02:18:09;7.80;;;3.83;;
29788;SDS011;64899;42.660;23.268;2023-02-01T02:48:23;6.10;;;3.28;;
29788;SDS011;64899;42.660;23.268;2023-02-01T02:56:43;4.35;;;2.90;;
29788;SDS011;64899;42.660;23.268;2023-02-01T02:59:27;5.22;;;2.90;;
29788;SDS011;64899;42.660;23.268;2023-02-01T03:02:12;5.00;;;3.10;;
29788;SDS011;64899;42.660;23.268;2023-02-01T03:04:57;6.10;;;2.70;;
29788;SDS011;64899;42.660;23.268;2023-02-01T03:18:51;4.53;;;2.73;;
29788;SDS011;64899;42.660;23.268;2023-02-01T03:21:32;3.47;;;2.53;;
29788;SDS011;64899;42.660;23.268;2023-02-01T03:24:02;3.67;;;2.90;;
29788;SDS011;64899;42.660;23.268;2023-02-01T03:26:32;5.03;;;2.92;;
29788;SDS011;64899;42.660;23.268;2023-02-01T03:29:14;5.97;;;3.38;;
29788;SDS011;64899;42.660;23.268;2023-02-01T03:31:42;5.40;;;2.75;;
29788;SDS011;64899;42.660;23.268;2023-02-01T03:34:08;6.25;;;2.97;;
29788;SDS011;64899;42.660;23.268;2023-02-01T03:36:49;4.40;;;2.70;;
29788;SDS011;64899;42.660;23.268;2023-02-01T03:39:21;4.45;;;2.67;;
29788;SDS011;64899;42.660;23.268;2023-02-01T03:44:21;3.90;;;2.65;;
29788;SDS011;64899;42.660;23.268;2023-02-01T03:49:22;6.40;;;2.30;;
29788;SDS011;64899;42.660;23.268;2023-02-01T03:51:51;3.65;;;2.20;;
29788;SDS011;64899;42.660;23.268;2023-02-01T03:54:17;4.78;;;2.33;;
29788;SDS011;64899;42.660;23.268;2023-02-01T03:56:43;2.95;;;2.60;;
29788;SDS011;64899;42.660;23.268;2023-02-01T03:59:10;4.32;;;2.63;;
29788;SDS011;64899;42.660;23.268;2023-02-01T04:01:36;4.30;;;2.67;;
29788;SDS011;64899;42.660;23.268;2023-02-01T04:04:01;5.00;;;2.72;;
29788;SDS011;64899;42.660;23.268;2023-02-01T04:06:27;3.58;;;2.45;;
29788;SDS011;64899;42.660;23.268;2023-02-01T04:08:52;6.63;;;2.83;;
29788;SDS011;64899;42.660;23.268;2023-02-01T04:11:17;6.72;;;2.92;;
29788;SDS011;64899;42.660;23.268;2023-02-01T04:13:43;3.20;;;2.60;;
29788;SDS011;64899;42.660;23.268;2023-02-01T04:16:09;7.07;;;2.95;;
29788;SDS011;64899;42.660;23.268;2023-02-01T04:18:34;6.53;;;2.95;;
29788;SDS011;64899;42.660;23.268;2023-02-01T04:21:00;4.38;;;2.92;;
29788;SDS011;64899;42.660;23.268;2023-02-01T04:23:27;6.53;;;3.13;;
29788;SDS011;64899;42.660;23.268;2023-02-01T04:25:53;3.45;;;2.83;;
29788;SDS011;64899;42.660;23.268;2023-02-01T04:28:18;4.82;;;3.28;;
29788;SDS011;64899;42.660;23.268;2023-02-01T04:30:45;6.88;;;3.40;;
29788;SDS011;64899;42.660;23.268;2023-02-01T04:33:10;5.38;;;3.08;;
29788;SDS011;64899;42.660;23.268;2023-02-01T04:35:38;5.22;;;3.30;;
29788;SDS011;64899;42.660;23.268;2023-02-01T04:38:04;8.70;;;4.03;;
29788;SDS011;64899;42.660;23.268;2023-02-01T04:40:30;6.88;;;4.00;;
29788;SDS011;64899;42.660;23.268;2023-02-01T04:42:55;7.38;;;3.70;;
29788;SDS011;64899;42.660;23.268;2023-02-01T04:45:20;7.80;;;4.03;;
29788;SDS011;64899;42.660;23.268;2023-02-01T04:47:46;6.63;;;4.10;;
29788;SDS011;64899;42.660;23.268;2023-02-01T04:50:13;7.03;;;4.25;;
29788;SDS011;64899;42.660;23.268;2023-02-01T04:52:38;6.18;;;4.15;;
29788;SDS011;64899;42.660;23.268;2023-02-01T04:55:03;6.68;;;3.60;;
29788;SDS011;64899;42.660;23.268;2023-02-01T04:57:29;7.88;;;4.18;;
29788;SDS011;64899;42.660;23.268;2023-02-01T04:59:54;5.30;;;3.65;;
29788;SDS011;64899;42.660;23.268;2023-02-01T05:02:20;9.57;;;4.32;;
29788;SDS011;64899;42.660;23.268;2023-02-01T05:04:45;6.72;;;4.00;;
29788;SDS011;64899;42.660;23.268;2023-02-01T05:07:11;9.43;;;4.20;;
29788;SDS011;64899;42.660;23.268;2023-02-01T05:09:36;6.03;;;3.90;;
29788;SDS011;64899;42.660;23.268;2023-02-01T05:12:02;6.25;;;3.45;;
29788;SDS011;64899;42.660;23.268;2023-02-01T05:14:46;6.07;;;4.30;;
29788;SDS011;64899;42.660;23.268;2023-02-01T05:17:12;6.25;;;4.20;;
29788;SDS011;64899;42.660;23.268;2023-02-01T05:19:38;6.00;;;3.95;;
29788;SDS011;64899;42.660;23.268;2023-02-01T05:22:03;6.35;;;3.75;;
29788;SDS011;64899;42.660;23.268;2023-02-01T05:24:28;10.20;;;3.95;;
29788;SDS011;64899;42.660;23.268;2023-02-01T05:26:54;5.45;;;3.97;;
29788;SDS011;64899;42.660;23.268;2023-02-01T05:29:19;6.13;;;4.18;;
29788;SDS011;64899;42.660;23.268;2023-02-01T05:31:45;7.20;;;4.47;;
29788;SDS011;64899;42.660;23.268;2023-02-01T05:34:11;6.80;;;4.43;;
29788;SDS011;64899;42.660;23.268;2023-02-01T05:36:36;8.90;;;4.60;;
29788;SDS011;64899;42.660;23.268;2023-02-01T05:39:02;6.57;;;4.53;;
29788;SDS011;64899;42.660;23.268;2023-02-01T05:41:27;8.13;;;5.05;;
29788;SDS011;64899;42.660;23.268;2023-02-01T05:43:53;10.85;;;5.32;;
29788;SDS011;64899;42.660;23.268;2023-02-01T05:46:18;11.57;;;5.57;;
29788;SDS011;64899;42.660;23.268;2023-02-01T05:48:44;9.15;;;5.00;;
29788;SDS011;64899;42.660;23.268;2023-02-01T05:51:10;8.85;;;4.88;;
29788;SDS011;64899;42.660;23.268;2023-02-01T05:53:36;10.00;;;4.95;;
29788;SDS011;64899;42.660;23.268;2023-02-01T05:56:01;9.02;;;4.72;;
29788;SDS011;64899;42.660;23.268;2023-02-01T05:58:27;7.88;;;4.50;;
29788;SDS011;64899;42.660;23.268;2023-02-01T06:00:52;8.45;;;4.93;;
29788;SDS011;64899;42.660;23.268;2023-02-01T06:03:18;5.82;;;3.95;;
29788;SDS011;64899;42.660;23.268;2023-02-01T06:05:44;9.80;;;4.82;;
29788;SDS011;64899;42.660;23.268;2023-02-01T06:08:11;5.68;;;4.25;;
29788;SDS011;64899;42.660;23.268;2023-02-01T06:10:36;8.05;;;4.40;;
29788;SDS011;64899;42.660;23.268;2023-02-01T06:13:02;8.95;;;4.57;;
29788;SDS011;64899;42.660;23.268;2023-02-01T06:15:27;6.65;;;4.40;;
29788;SDS011;64899;42.660;23.268;2023-02-01T06:17:53;7.18;;;4.68;;
29788;SDS011;64899;42.660;23.268;2023-02-01T06:20:19;5.82;;;3.85;;
29788;SDS011;64899;42.660;23.268;2023-02-01T06:22:45;9.23;;;4.05;;
29788;SDS011;64899;42.660;23.268;2023-02-01T06:25:10;11.00;;;5.60;;
29788;SDS011;64899;42.660;23.268;2023-02-01T06:27:36;7.10;;;4.40;;
29788;SDS011;64899;42.660;23.268;2023-02-01T06:30:02;7.45;;;4.05;;
29788;SDS011;64899;42.660;23.268;2023-02-01T06:32:29;7.35;;;4.20;;
29788;SDS011;64899;42.660;23.268;2023-02-01T06:34:54;8.75;;;4.18;;
29788;SDS011;64899;42.660;23.268;2023-02-01T06:37:21;7.47;;;4.25;;
29788;SDS011;64899;42.660;23.268;2023-02-01T06:39:48;17.88;;;7.00;;
29788;SDS011;64899;42.660;23.268;2023-02-01T06:42:13;12.20;;;6.43;;
29788;SDS011;64899;42.660;23.268;2023-02-01T06:44:40;10.70;;;4.70;;
29788;SDS011;64899;42.660;23.268;2023-02-01T06:47:05;8.48;;;4.38;;
29788;SDS011;64899;42.660;23.268;2023-02-01T06:49:31;11.40;;;5.05;;
29788;SDS011;64899;42.660;23.268;2023-02-01T06:51:56;11.82;;;6.72;;
29788;SDS011;64899;42.660;23.268;2023-02-01T06:54:22;10.48;;;4.53;;
29788;SDS011;64899;42.660;23.268;2023-02-01T06:56:47;12.40;;;4.50;;
29788;SDS011;64899;42.660;23.268;2023-02-01T06:59:12;7.53;;;3.78;;
29788;SDS011;64899;42.660;23.268;2023-02-01T07:01:38;7.30;;;3.85;;
29788;SDS011;64899;42.660;23.268;2023-02-01T07:04:08;6.28;;;3.80;;
29788;SDS011;64899;42.660;23.268;2023-02-01T07:06:35;11.82;;;3.45;;
29788;SDS011;64899;42.660;23.268;2023-02-01T07:09:00;10.18;;;4.38;;
29788;SDS011;64899;42.660;23.268;2023-02-01T07:11:26;8.98;;;3.83;;
29788;SDS011;64899;42.660;23.268;2023-02-01T07:13:53;8.25;;;3.67;;
29788;SDS011;64899;42.660;23.268;2023-02-01T07:16:19;7.63;;;3.53;;
29788;SDS011;64899;42.660;23.268;2023-02-01T07:18:44;5.82;;;3.70;;
29788;SDS011;64899;42.660;23.268;2023-02-01T07:21:10;5.25;;;3.70;;
29788;SDS011;64899;42.660;23.268;2023-02-01T07:23:36;8.40;;;3.28;;
29788;SDS011;64899;42.660;23.268;2023-02-01T07:26:03;7.45;;;3.80;;
29788;SDS011;64899;42.660;23.268;2023-02-01T07:28:30;5.60;;;3.45;;
29788;SDS011;64899;42.660;23.268;2023-02-01T07:31:07;5.85;;;3.70;;
29788;SDS011;64899;42.660;23.268;2023-02-01T07:33:34;6.68;;;3.38;;
29788;SDS011;64899;42.660;23.268;2023-02-01T07:36:01;7.80;;;4.28;;
29788;SDS011;64899;42.660;23.268;2023-02-01T07:38:28;8.60;;;3.65;;
29788;SDS011;64899;42.660;23.268;2023-02-01T07:41:11;10.02;;;3.83;;
29788;SDS011;64899;42.660;23.268;2023-02-01T07:43:36;6.93;;;3.45;;
29788;SDS011;64899;42.660;23.268;2023-02-01T07:46:02;6.22;;;3.63;;
29788;SDS011;64899;42.660;23.268;2023-02-01T07:48:28;9.30;;;4.03;;
29788;SDS011;64899;42.660;23.268;2023-02-01T07:51:28;9.20;;;3.95;;
29788;SDS011;64899;42.660;23.268;2023-02-01T07:53:46;10.40;;;4.63;;
29788;SDS011;64899;42.660;23.268;2023-02-01T07:56:13;6.97;;;3.88;;
29788;SDS011;64899;42.660;23.268;2023-02-01T07:58:40;9.07;;;3.75;;
29788;SDS011;64899;42.660;23.268;2023-02-01T08:01:05;7.25;;;3.55;;
29788;SDS011;64899;42.660;23.268;2023-02-01T08:06:21;8.38;;;4.13;;
29788;SDS011;64899;42.660;23.268;2023-02-01T08:08:48;7.30;;;4.03;;
29788;SDS011;64899;42.660;23.268;2023-02-01T08:11:14;8.25;;;4.15;;
29788;SDS011;64899;42.660;23.268;2023-02-01T08:13:40;6.25;;;3.15;;
29788;SDS011;64899;42.660;23.268;2023-02-01T08:16:07;7.40;;;3.88;;
29788;SDS011;64899;42.660;23.268;2023-02-01T08:18:34;8.02;;;3.65;;
29788;SDS011;64899;42.660;23.268;2023-02-01T08:21:08;6.85;;;3.05;;
29788;SDS011;64899;42.660;23.268;2023-02-01T08:23:36;6.90;;;3.47;;
29788;SDS011;64899;42.660;23.268;2023-02-01T08:28:33;6.30;;;3.00;;
29788;SDS011;64899;42.660;23.268;2023-02-01T08:31:03;7.25;;;4.03;;
29788;SDS011;64899;42.660;23.268;2023-02-01T08:33:29;8.30;;;3.63;;
29788;SDS011;64899;42.660;23.268;2023-02-01T08:35:54;9.35;;;3.97;;
29788;SDS011;64899;42.660;23.268;2023-02-01T08:38:20;10.50;;;3.92;;
29788;SDS011;64899;42.660;23.268;2023-02-01T08:40:45;12.75;;;3.60;;
29788;SDS011;64899;42.660;23.268;2023-02-01T08:43:11;11.50;;;4.57;;
29788;SDS011;64899;42.660;23.268;2023-02-01T08:45:36;11.57;;;3.97;;
29788;SDS011;64899;42.660;23.268;2023-02-01T08:48:02;11.63;;;4.35;;
29788;SDS011;64899;42.660;23.268;2023-02-01T08:50:27;7.75;;;3.47;;
29788;SDS011;64899;42.660;23.268;2023-02-01T08:52:53;7.90;;;3.55;;
29788;SDS011;64899;42.660;23.268;2023-02-01T08:55:19;7.45;;;3.40;;
29788;SDS011;64899;42.660;23.268;2023-02-01T08:57:44;9.68;;;3.72;;
29788;SDS011;64899;42.660;23.268;2023-02-01T09:00:11;5.80;;;3.85;;
29788;SDS011;64899;42.660;23.268;2023-02-01T09:02:38;8.55;;;4.07;;
29788;SDS011;64899;42.660;23.268;2023-02-01T09:05:04;7.75;;;3.78;;
29788;SDS011;64899;42.660;23.268;2023-02-01T09:07:31;9.75;;;4.13;;
29788;SDS011;64899;42.660;23.268;2023-02-01T09:09:57;10.65;;;4.10;;
29788;SDS011;64899;42.660;23.268;2023-02-01T09:12:26;5.55;;;2.75;;
29788;SDS011;64899;42.660;23.268;2023-02-01T09:14:57;7.30;;;3.08;;
29788;SDS011;64899;42.660;23.268;2023-02-01T09:17:24;6.15;;;2.90;;
29788;SDS011;64899;42.660;23.268;2023-02-01T09:19:50;9.88;;;2.83;;
29788;SDS011;64899;42.660;23.268;2023-02-01T09:22:16;6.07;;;2.63;;
29788;SDS011;64899;42.660;23.268;2023-02-01T09:24:41;6.43;;;2.25;;
29788;SDS011;64899;42.660;23.268;2023-02-01T09:27:07;4.13;;;3.00;;
29788;SDS011;64899;42.660;23.268;2023-02-01T09:29:32;7.57;;;3.10;;
29788;SDS011;64899;42.660;23.268;2023-02-01T09:31:57;7.30;;;3.00;;
29788;SDS011;64899;42.660;23.268;2023-02-01T09:34:23;3.15;;;2.15;;
29788;SDS011;64899;42.660;23.268;2023-02-01T09:36:48;6.65;;;2.58;;
29788;SDS011;64899;42.660;23.268;2023-02-01T09:39:14;9.23;;;2.88;;
29788;SDS011;64899;42.660;23.268;2023-02-01T09:41:51;7.78;;;2.70;;
29788;SDS011;64899;42.660;23.268;2023-02-01T09:46:54;5.38;;;2.78;;
29788;SDS011;64899;42.660;23.268;2023-02-01T09:49:26;5.03;;;3.00;;
29788;SDS011;64899;42.660;23.268;2023-02-01T09:54:22;8.57;;;2.90;;
29788;SDS011;64899;42.660;23.268;2023-02-01T09:56:51;8.60;;;2.90;;
29788;SDS011;64899;42.660;23.268;2023-02-01T10:01:51;5.90;;;2.67;;
29788;SDS011;64899;42.660;23.268;2023-02-01T10:04:17;5.05;;;2.72;;
29788;SDS011;64899;42.660;23.268;2023-02-01T10:09:15;5.78;;;2.13;;
29788;SDS011;64899;42.660;23.268;2023-02-01T10:12:01;8.13;;;2.88;;
29788;SDS011;64899;42.660;23.268;2023-02-01T10:25:53;5.82;;;2.20;;
29788;SDS011;64899;42.660;23.268;2023-02-01T10:28:19;3.10;;;2.30;;
29788;SDS011;64899;42.660;23.268;2023-02-01T10:30:47;6.05;;;2.33;;
29788;SDS011;64899;42.660;23.268;2023-02-01T10:33:17;6.13;;;2.75;;
29788;SDS011;64899;42.660;23.268;2023-02-01T10:35:45;5.55;;;2.50;;
29788;SDS011;64899;42.660;23.268;2023-02-01T10:38:30;7.40;;;2.70;;
29788;SDS011;64899;42.660;23.268;2023-02-01T10:41:01;5.93;;;2.53;;
29788;SDS011;64899;42.660;23.268;2023-02-01T10:43:29;7.60;;;2.60;;
29788;SDS011;64899;42.660;23.268;2023-02-01T10:45:55;7.70;;;2.70;;
29788;SDS011;64899;42.660;23.268;2023-02-01T10:48:20;8.15;;;2.30;;
29788;SDS011;64899;42.660;23.268;2023-02-01T10:53:18;8.18;;;3.10;;
29788;SDS011;64899;42.660;23.268;2023-02-01T10:55:55;4.25;;;2.22;;
29788;SDS011;64899;42.660;23.268;2023-02-01T10:58:27;6.45;;;2.90;;
29788;SDS011;64899;42.660;23.268;2023-02-01T11:00:57;4.18;;;2.60;;
29788;SDS011;64899;42.660;23.268;2023-02-01T11:05:57;4.72;;;2.45;;
29788;SDS011;64899;42.660;23.268;2023-02-01T11:08:22;4.55;;;2.47;;
29788;SDS011;64899;42.660;23.268;2023-02-01T11:10:49;7.05;;;2.30;;
29788;SDS011;64899;42.660;23.268;2023-02-01T11:13:23;4.93;;;2.53;;
29788;SDS011;64899;42.660;23.268;2023-02-01T11:15:56;4.93;;;2.10;;
29788;SDS011;64899;42.660;23.268;2023-02-01T11:18:29;5.30;;;2.53;;
29788;SDS011;64899;42.660;23.268;2023-02-01T11:21:00;5.10;;;1.95;;
29788;SDS011;64899;42.660;23.268;2023-02-01T11:23:26;4.68;;;2.65;;
29788;SDS011;64899;42.660;23.268;2023-02-01T11:28:44;6.57;;;2.38;;
29788;SDS011;64899;42.660;23.268;2023-02-01T11:31:24;4.93;;;2.35;;
29788;SDS011;64899;42.660;23.268;2023-02-01T11:33:51;4.07;;;1.95;;
29788;SDS011;64899;42.660;23.268;2023-02-01T11:36:21;3.80;;;2.00;;
29788;SDS011;64899;42.660;23.268;2023-02-01T11:38:54;2.47;;;1.80;;
29788;SDS011;64899;42.660;23.268;2023-02-01T11:41:41;5.68;;;2.25;;
29788;SDS011;64899;42.660;23.268;2023-02-01T11:44:21;4.85;;;2.03;;
29788;SDS011;64899;42.660;23.268;2023-02-01T11:46:48;3.67;;;1.90;;
29788;SDS011;64899;42.660;23.268;2023-02-01T11:51:58;3.38;;;1.70;;
29788;SDS011;64899;42.660;23.268;2023-02-01T11:54:40;4.18;;;2.28;;
29788;SDS011;64899;42.660;23.268;2023-02-01T12:05:55;3.72;;;1.75;;
29788;SDS011;64899;42.660;23.268;2023-02-01T12:08:51;2.30;;;1.65;;
29788;SDS011;64899;42.660;23.268;2023-02-01T12:19:34;5.88;;;2.20;;
29788;SDS011;64899;42.660;23.268;2023-02-01T12:38:40;4.28;;;2.20;;
29788;SDS011;64899;42.660;23.268;2023-02-01T12:46:13;3.92;;;2.15;;
29788;SDS011;64899;42.660;23.268;2023-02-01T12:51:37;5.28;;;2.85;;
29788;SDS011;64899;42.660;23.268;2023-02-01T12:54:16;4.82;;;2.53;;
29788;SDS011;64899;42.660;23.268;2023-02-01T12:56:56;5.25;;;2.10;;
29788;SDS011;64899;42.660;23.268;2023-02-01T13:02:14;3.38;;;2.00;;
29788;SDS011;64899;42.660;23.268;2023-02-01T13:04:49;4.45;;;2.30;;
29788;SDS011;64899;42.660;23.268;2023-02-01T13:07:21;4.60;;;2.30;;
29788;SDS011;64899;42.660;23.268;2023-02-01T13:12:49;4.43;;;2.53;;
29788;SDS011;64899;42.660;23.268;2023-02-01T13:15:19;2.80;;;1.92;;
29788;SDS011;64899;42.660;23.268;2023-02-01T13:17:48;4.30;;;2.00;;
29788;SDS011;64899;42.660;23.268;2023-02-01T13:23:35;2.15;;;1.58;;
29788;SDS011;64899;42.660;23.268;2023-02-01T13:25:45;6.65;;;2.55;;
29788;SDS011;64899;42.660;23.268;2023-02-01T13:33:52;1.95;;;1.58;;
29788;SDS011;64899;42.660;23.268;2023-02-01T13:42:03;4.05;;;2.40;;
29788;SDS011;64899;42.660;23.268;2023-02-01T13:44:38;3.03;;;1.90;;
29788;SDS011;64899;42.660;23.268;2023-02-01T13:47:18;4.00;;;1.95;;
29788;SDS011;64899;42.660;23.268;2023-02-01T13:49:46;3.08;;;1.88;;
29788;SDS011;64899;42.660;23.268;2023-02-01T13:52:25;2.58;;;1.95;;
29788;SDS011;64899;42.660;23.268;2023-02-01T13:55:25;3.03;;;1.67;;
29788;SDS011;64899;42.660;23.268;2023-02-01T13:57:59;3.15;;;1.73;;
29788;SDS011;64899;42.660;23.268;2023-02-01T14:23:40;2.85;;;2.13;;
29788;SDS011;64899;42.660;23.268;2023-02-01T14:26:08;2.65;;;1.90;;
29788;SDS011;64899;42.660;23.268;2023-02-01T14:28:36;4.75;;;2.70;;
29788;SDS011;64899;42.660;23.268;2023-02-01T14:34:08;4.55;;;2.47;;
29788;SDS011;64899;42.660;23.268;2023-02-01T14:36:41;4.43;;;2.25;;
29788;SDS011;64899;42.660;23.268;2023-02-01T14:39:19;6.85;;;2.38;;
29788;SDS011;64899;42.660;23.268;2023-02-01T14:41:52;5.57;;;2.10;;
29788;SDS011;64899;42.660;23.268;2023-02-01T14:44:24;4.13;;;2.20;;
29788;SDS011;64899;42.660;23.268;2023-02-01T14:49:49;5.78;;;2.38;;
29788;SDS011;64899;42.660;23.268;2023-02-01T14:52:16;6.93;;;2.67;;
29788;SDS011;64899;42.660;23.268;2023-02-01T14:54:43;5.53;;;3.08;;
29788;SDS011;64899;42.660;23.268;2023-02-01T14:57:20;7.78;;;3.35;;
29788;SDS011;64899;42.660;23.268;2023-02-01T14:59:58;4.07;;;2.85;;
29788;SDS011;64899;42.660;23.268;2023-02-01T15:02:25;6.05;;;2.88;;
29788;SDS011;64899;42.660;23.268;2023-02-01T15:04:55;6.55;;;3.03;;
29788;SDS011;64899;42.660;23.268;2023-02-01T15:07:22;7.20;;;3.00;;
29788;SDS011;64899;42.660;23.268;2023-02-01T15:09:49;5.68;;;2.90;;
29788;SDS011;64899;42.660;23.268;2023-02-01T15:12:17;4.22;;;2.70;;
29788;SDS011;64899;42.660;23.268;2023-02-01T15:15:03;7.45;;;3.20;;
29788;SDS011;64899;42.660;23.268;2023-02-01T15:17:34;9.82;;;3.72;;
29788;SDS011;64899;42.660;23.268;2023-02-01T15:20:00;8.10;;;4.22;;
29788;SDS011;64899;42.660;23.268;2023-02-01T15:22:28;10.38;;;4.53;;
29788;SDS011;64899;42.660;23.268;2023-02-01T15:24:55;10.60;;;4.55;;
29788;SDS011;64899;42.660;23.268;2023-02-01T15:27:21;8.80;;;4.35;;
29788;SDS011;64899;42.660;23.268;2023-02-01T15:29:47;4.95;;;3.03;;
29788;SDS011;64899;42.660;23.268;2023-02-01T15:32:31;5.32;;;2.90;;
29788;SDS011;64899;42.660;23.268;2023-02-01T15:34:59;4.97;;;2.67;;
29788;SDS011;64899;42.660;23.268;2023-02-01T15:37:25;4.75;;;2.55;;
29788;SDS011;64899;42.660;23.268;2023-02-01T15:40:04;4.55;;;3.17;;
29788;SDS011;64899;42.660;23.268;2023-02-01T15:42:46;4.18;;;2.90;;
29788;SDS011;64899;42.660;23.268;2023-02-01T15:45:18;6.60;;;3.50;;
29788;SDS011;64899;42.660;23.268;2023-02-01T15:47:46;6.75;;;4.10;;
29788;SDS011;64899;42.660;23.268;2023-02-01T15:50:18;6.97;;;3.20;;
29788;SDS011;64899;42.660;23.268;2023-02-01T15:52:46;6.18;;;3.40;;
29788;SDS011;64899;42.660;23.268;2023-02-01T15:58:07;5.57;;;3.40;;
29788;SDS011;64899;42.660;23.268;2023-02-01T16:00:41;5.60;;;2.88;;
29788;SDS011;64899;42.660;23.268;2023-02-01T16:06:44;6.05;;;2.90;;
29788;SDS011;64899;42.660;23.268;2023-02-01T16:13:50;4.40;;;2.40;;
29788;SDS011;64899;42.660;23.268;2023-02-01T16:16:15;6.53;;;2.90;;
29788;SDS011;64899;42.660;23.268;2023-02-01T16:18:41;9.23;;;3.33;;
29788;SDS011;64899;42.660;23.268;2023-02-01T16:21:06;8.07;;;2.90;;
29788;SDS011;64899;42.660;23.268;2023-02-01T16:23:33;4.70;;;2.80;;
29788;SDS011;64899;42.660;23.268;2023-02-01T16:26:02;6.68;;;4.40;;
29788;SDS011;64899;42.660;23.268;2023-02-01T16:28:28;7.97;;;3.70;;
29788;SDS011;64899;42.660;23.268;2023-02-01T16:30:54;3.50;;;2.60;;
29788;SDS011;64899;42.660;23.268;2023-02-01T16:33:20;4.80;;;2.85;;
29788;SDS011;64899;42.660;23.268;2023-02-01T16:35:49;5.20;;;2.60;;
29788;SDS011;64899;42.660;23.268;2023-02-01T16:38:16;8.10;;;3.63;;
29788;SDS011;64899;42.660;23.268;2023-02-01T16:40:44;6.82;;;3.35;;
29788;SDS011;64899;42.660;23.268;2023-02-01T16:43:14;8.02;;;4.00;;
29788;SDS011;64899;42.660;23.268;2023-02-01T16:45:44;7.78;;;3.85;;
29788;SDS011;64899;42.660;23.268;2023-02-01T16:48:23;7.13;;;4.10;;
29788;SDS011;64899;42.660;23.268;2023-02-01T16:50:55;6.97;;;4.28;;
29788;SDS011;64899;42.660;23.268;2023-02-01T16:53:22;6.72;;;4.30;;
29788;SDS011;64899;42.660;23.268;2023-02-01T16:55:49;8.07;;;4.15;;
29788;SDS011;64899;42.660;23.268;2023-02-01T16:58:18;12.82;;;4.15;;
29788;SDS011;64899;42.660;23.268;2023-02-01T17:00:44;6.80;;;4.43;;
29788;SDS011;64899;42.660;23.268;2023-02-01T17:03:10;8.82;;;4.43;;
29788;SDS011;64899;42.660;23.268;2023-02-01T17:05:41;10.02;;;4.95;;
29788;SDS011;64899;42.660;23.268;2023-02-01T17:08:12;12.85;;;6.28;;
29788;SDS011;64899;42.660;23.268;2023-02-01T17:10:39;13.95;;;7.05;;
29788;SDS011;64899;42.660;23.268;2023-02-01T17:13:07;13.70;;;6.47;;
29788;SDS011;64899;42.660;23.268;2023-02-01T17:15:35;11.45;;;5.70;;
29788;SDS011;64899;42.660;23.268;2023-02-01T17:18:01;10.05;;;4.65;;
29788;SDS011;64899;42.660;23.268;2023-02-01T17:20:28;5.72;;;3.40;;
29788;SDS011;64899;42.660;23.268;2023-02-01T17:22:56;8.38;;;4.47;;
29788;SDS011;64899;42.660;23.268;2023-02-01T17:25:21;8.00;;;4.00;;
29788;SDS011;64899;42.660;23.268;2023-02-01T17:27:47;5.68;;;3.40;;
29788;SDS011;64899;42.660;23.268;2023-02-01T17:30:13;6.20;;;3.90;;
29788;SDS011;64899;42.660;23.268;2023-02-01T17:32:39;11.35;;;4.47;;
29788;SDS011;64899;42.660;23.268;2023-02-01T17:35:08;8.30;;;4.03;;
29788;SDS011;64899;42.660;23.268;2023-02-01T17:37:45;11.50;;;5.07;;
29788;SDS011;64899;42.660;23.268;2023-02-01T17:40:11;5.40;;;3.63;;
29788;SDS011;64899;42.660;23.268;2023-02-01T17:42:37;6.75;;;3.58;;
29788;SDS011;64899;42.660;23.268;2023-02-01T17:45:45;8.80;;;3.22;;
29788;SDS011;64899;42.660;23.268;2023-02-01T17:47:52;6.13;;;2.88;;
29788;SDS011;64899;42.660;23.268;2023-02-01T17:50:18;5.63;;;2.60;;
29788;SDS011;64899;42.660;23.268;2023-02-01T17:52:43;5.43;;;3.08;;